• Join FlightAware (Why Join?)
  • Login
  • US Flag 
11:44AM EDT


 

Airport Tracker/Info


-or-


 

Live Flight TrackerFlight Track Log ✈ ASQ6124 ✈ 12-Jul-2013 ✈ KCLT - KIAH

Flight Track Log - Related Links

Times and Time Zones

All times are in EDT time to prevent confusion due to time zone crossing. See the ASQ6124 flight status page for this flight to view local times or setup timezone preferences in your user account.

Time Position Orientation Groundspeed Altitude Reporting Facility
EDT Latitude Longitude Course Direction KTS MPH feet Rate Location/Type
02:23PM 35.2353 -80.9594 192° South 175 201 1,600  Level Atlanta Center
02:24PM 35.2822 -81.0061 321° Northwest 252 290 3,400 2,220 Climbing Atlanta Center
02:25PM 35.2861 -81.0797 274° West 265 305 5,600 2,820 Climbing Atlanta Center
02:26PM 35.2667 -81.1788 270° West  Level FlightAware Approximate
02:26PM 35.2397 -81.1397 227° Southwest 280 322 8,400  Level Atlanta Center
02:27PM 35.1972 -81.2465 199° South  Level FlightAware Approximate
02:27PM 35.1892 -81.2153 231° Southwest 290 334 10,400  Level Atlanta Center
02:28PM 35.0965 -81.2801 192° South  Level FlightAware Approximate
02:28PM 35.1414 -81.3083 238° Southwest 310 357 12,000  Level Atlanta Center
02:29PM 35.0972 -81.3961 238° Southwest 341 392 13,400 1,440 Climbing Atlanta Center
02:30PM 35.0453 -81.4992 238° Southwest 352 405 14,900 1,500 Climbing Atlanta Center
02:31PM 34.9953 -81.6047 240° Southwest 367 422 16,400 1,500 Climbing Atlanta Center
02:32PM 34.9597 -81.7172 249° West 361 415 17,900 1,500 Climbing Atlanta Center
02:33PM 34.9203 -81.8325 247° West 366 421 19,400 1,620 Climbing Atlanta Center
02:34PM 34.8575 -81.9428 235° Southwest 361 415 21,200 1,740 Climbing Atlanta Center
02:35PM 34.8108 -82.0200 234° Southwest 356 410 22,900 1,380 Climbing Atlanta Center
02:36PM 34.7458 -82.1353 236° Southwest 361 415 24,000 600 Climbing Atlanta Center
02:37PM 34.6828 -82.2453 235° Southwest 379 436 24,200 480 Climbing Atlanta Center
02:38PM 34.6197 -82.3553 235° Southwest 397 457 25,000 240 Climbing Atlanta Center
02:40PM 34.4889 -82.5822 235° Southwest 413 475 25,000  Level Atlanta Center
02:41PM 34.4214 -82.6992 235° Southwest 419 482 25,000 360 Level Atlanta Center
02:42PM 34.3558 -82.8158 236° Southwest 424 488 25,800 480 Climbing Atlanta Center
02:43PM 34.2836 -82.9075 226° Southwest 424 488 26,000 540 Climbing Atlanta Center
02:44PM 34.1947 -82.9939 219° Southwest 419 482 26,900 1,200 Climbing Atlanta Center
02:45PM 34.1056 -83.0803 219° Southwest 414 476 28,400 1,260 Climbing Atlanta Center
02:46PM 34.0228 -83.1617 219° Southwest 401 461 29,500 1,260 Climbing Atlanta Center
02:47PM 33.9419 -83.2400 219° Southwest 388 447 31,000 1,440 Climbing Atlanta Center
02:48PM 33.8569 -83.3283 221° Southwest 383 441 32,400 1,440 Climbing Atlanta Center
02:49PM 33.7822 -83.4089 222° Southwest 367 422 33,900 1,440 Climbing Atlanta Center
02:50PM 33.7117 -83.4819 221° Southwest 353 406 35,300 1,020 Climbing Atlanta Center
02:51PM 33.6431 -83.5547 221° Southwest 342 394 36,000 300 Climbing Atlanta Center
02:52PM 33.5722 -83.6300 222° Southwest 342 394 36,000  Level Atlanta Center
02:53PM 33.4933 -83.7150 222° Southwest 356 410 36,000  Level Atlanta Center
02:54PM 33.4142 -83.7975 221° Southwest 372 428 36,000  Level Atlanta Center
02:55PM 33.3286 -83.8847 220° Southwest 396 456 36,000  Level Atlanta Center
02:56PM 33.2558 -83.9667 223° Southwest 408 470 36,000  Level Atlanta Center
02:57PM 33.1703 -84.0586 222° Southwest 413 475 36,000  Level Atlanta Center
02:58PM 33.0825 -84.1481 221° Southwest 413 475 36,000  Level Atlanta Center
02:59PM 32.9967 -84.2394 222° Southwest 413 475 36,000  Level Atlanta Center
03:00PM 32.9089 -84.3283 220° Southwest 413 475 36,000  Level Atlanta Center
03:01PM 32.8125 -84.4244 220° Southwest 413 475 36,000  Level Atlanta Center
03:02PM 32.7206 -84.5031 216° Southwest 413 475 36,000  Level Atlanta Center
03:03PM 32.6283 -84.5839 216° Southwest 413 475 36,000  Level Atlanta Center
03:04PM 32.5361 -84.6622 216° Southwest 413 475 36,000  Level Atlanta Center
03:05PM 32.4564 -84.7428 220° Southwest 418 481 36,000  Level Atlanta Center
03:06PM 32.3869 -84.8431 231° Southwest 424 488 36,000  Level Atlanta Center
03:07PM 32.3297 -84.9631 241° Southwest 410 472 36,000  Level Atlanta Center
03:08PM 32.2744 -85.0828 241° Southwest 415 478 36,000  Level Atlanta Center
03:09PM 32.2192 -85.2025 241° Southwest 420 483 36,000  Level Atlanta Center
03:10PM 32.1658 -85.3197 242° Southwest 415 478 36,000  Level Atlanta Center
03:11PM 32.1103 -85.4439 242° Southwest 415 478 36,000  Level Atlanta Center
03:12PM 32.0544 -85.5656 242° Southwest 415 478 36,000  Level Atlanta Center
03:13PM 31.9986 -85.6844 241° Southwest 415 478 36,000  Level Atlanta Center
03:16PM 31.8331 -86.0419 241° Southwest 429 494 36,000  Level Jacksonville Center
03:17PM 31.7778 -86.1647 242° Southwest 429 494 36,000  Level Jacksonville Center
03:18PM 31.7203 -86.2850 241° Southwest 429 494 36,000  Level Jacksonville Center
03:19PM 31.6647 -86.4097 242° Southwest 429 494 36,000  Level Jacksonville Center
03:20PM 31.6050 -86.5319 240° Southwest 429 494 36,000  Level Jacksonville Center
03:21PM 31.5492 -86.6517 241° Southwest 429 494 36,000  Level Jacksonville Center
03:23PM 31.4217 -86.9247 241° Southwest 426 490 36,000  Level Houston Center
03:24PM 31.3522 -87.0675 240° Southwest 422 486 36,000  Level Houston Center
03:25PM 31.2956 -87.1886 241° Southwest 424 488 36,000  Level Houston Center
03:26PM 31.2378 -87.3097 241° Southwest 426 490 36,000  Level Houston Center
03:27PM 31.1792 -87.4297 240° Southwest 425 489 36,000  Level Houston Center
03:28PM 31.1219 -87.5497 241° Southwest 422 486 36,000  Level Houston Center
03:29PM 31.0639 -87.6700 241° Southwest 423 487 36,000  Level Houston Center
03:30PM 31.0033 -87.7936 240° Southwest 423 487 36,000  Level Houston Center
03:31PM 30.9322 -87.9361 240° Southwest 424 488 36,000  Level Houston Center
03:32PM 30.8742 -88.0575 241° Southwest 427 491 36,000  Level Houston Center
03:33PM 30.8331 -88.1861 250° West 427 491 36,000  Level Houston Center
03:34PM 30.7947 -88.3167 251° West 426 490 36,000  Level Houston Center
03:36PM 30.7567 -88.4461 251° West 425 489 36,000  Level Houston Center
03:37PM 30.7161 -88.5767 250° West 427 491 36,000  Level Houston Center
03:38PM 30.6728 -88.7117 250° West 428 493 36,000  Level Houston Center
03:39PM 30.6244 -88.8683 250° West 428 493 36,000  Level Houston Center
03:40PM 30.5878 -88.9919 251° West 426 490 36,000  Level Houston Center
03:41PM 30.5497 -89.1239 252° West 430 495 36,000  Level Houston Center
03:42PM 30.5083 -89.2533 250° West 430 495 36,000  Level Houston Center
03:43PM 30.4606 -89.4103 251° West 430 495 36,000  Level Houston Center
03:44PM 30.4194 -89.5394 250° West 429 494 36,000  Level Houston Center
03:45PM 30.3742 -89.6794 249° West 437 503 36,000  Level Houston Center
03:46PM 30.3283 -89.8108 248° West 440 506 36,000  Level Houston Center
03:47PM 30.2875 -89.9497 251° West 439 505 36,000  Level Houston Center
03:48PM 30.2456 -90.0825 250° West 442 509 36,000  Level Houston Center
03:49PM 30.2031 -90.2125 249° West 435 501 36,000  Level Houston Center
03:50PM 30.1606 -90.3439 250° West 436 502 36,000  Level Houston Center
03:51PM 30.1178 -90.4756 249° West 438 504 36,000  Level Houston Center
03:52PM 30.0664 -90.6333 249° West 438 504 36,000  Level Houston Center
03:53PM 30.0228 -90.7658 249° West 441 507 36,000  Level Houston Center
03:54PM 29.9792 -90.8983 249° West 443 510 36,000  Level Houston Center
03:55PM 29.9347 -91.0308 249° West 444 511 36,000  Level Houston Center
03:56PM 29.8931 -91.1644 250° West 445 512 36,000  Level Houston Center
03:57PM 29.8481 -91.2975 249° West 446 513 36,000  Level Houston Center
03:58PM 29.7944 -91.4583 249° West 449 517 36,000  Level Houston Center
03:59PM 29.7486 -91.5953 249° West 457 526 36,000  Level Houston Center
04:00PM 29.7019 -91.7339 249° West 452 520 36,000  Level Houston Center
04:01PM 29.6561 -91.8700 249° West 457 526 36,000  Level Houston Center
04:02PM 29.6106 -92.0056 249° West 455 524 36,000  Level Houston Center
04:03PM 29.5644 -92.1417 249° West 457 526 36,000  Level Houston Center
04:04PM 29.5175 -92.2783 248° West 458 527 36,000  Level Houston Center
04:06PM 29.4636 -92.4419 249° West 458 527 36,000  Level Houston Center
04:07PM 29.4622 -92.5844 269° West 447 514 36,000  Level Houston Center
04:08PM 29.4692 -92.7281 273° West 450 518 36,000  Level Houston Center
04:09PM 29.4761 -92.8719 273° West 450 518 36,000  Level Houston Center
04:10PM 29.4814 -93.0153 272° West 449 517 36,000 -180 Level Houston Center
04:11PM 29.4881 -93.1597 273° West 452 520 35,700 -1,500 Descending Houston Center
04:12PM 29.4936 -93.3039 273° West 452 520 33,000 -3,000 Descending Houston Center
04:13PM 29.5011 -93.4739 273° West 446 513 29,600 -3,060 Descending Houston Center
04:14PM 29.5064 -93.6222 272° West 455 524 26,700 -2,820 Descending Houston Center
04:15PM 29.5117 -93.7739 272° West 469 540 23,800 -2,880 Descending Houston Center
04:16PM 29.5183 -93.9158 273° West 449 517 20,800 -2,940 Descending Houston Center
04:17PM 29.5228 -94.0514 272° West 427 491 17,800 -2,940 Descending Houston Center
04:17PM 29.5267 -94.1442 273° West 409 471 16,000 -2,640 Descending Houston Center
04:19PM 29.5294 -94.2761 271° West 373 429 13,500 -2,100 Descending Houston Center
04:20PM 29.5511 -94.3886 283° West 362 417 11,700 -1,380 Descending Houston Center
04:21PM 29.5975 -94.4956 297° West 364 419 10,700 -840 Descending Houston Center
04:22PM 29.6439 -94.6028 296° West 376 433 10,000 -480 Descending Houston Center
04:22PM 29.6592 -94.6392 296° West 374 430 10,000  Level Houston Center
04:23PM 29.6903 -94.7147 295° West 371 427 10,000  Level Houston Center
04:23PM 29.7044 -94.7453 298° West 372 428 10,000  Level Houston Center
04:24PM 29.7342 -94.8197 295° West 367 422 10,000  Level Houston Center
04:24PM 29.7572 -94.8711 297° West 366 421 10,000  Level Houston Center
04:25PM 29.7797 -94.9250 296° West 359 413 10,000 -240 Level Houston Center
04:25PM 29.7992 -94.9667 298° West 346 398 9,800 -1,080 Descending Houston Center
04:26PM 29.8342 -95.0514 295° West 304 350 8,400 -1,500 Descending Houston Center
04:27PM 29.8703 -95.1356 296° West 297 342 6,700 -1,200 Descending Houston Center
04:28PM 29.9000 -95.2172 293° West 283 326 6,000 -360 Descending Houston Center
04:29PM 29.9006 -95.3208 270° West 274 315 6,000  Level Houston Center
04:30PM 29.9011 -95.4108 270° West 281 323 6,000 -360 Level Houston Center
04:31PM 29.9014 -95.4922 270° West 259 298 5,300 -960 Descending Houston Center
04:32PM 29.9047 -95.5689 273° West 245 282 4,100 -1,020 Descending Houston Center
04:33PM 29.9647 -95.5761 354° North 224 258 3,200 -660 Descending Houston Center
04:34PM 29.9942 -95.5167 60° Northeast 200 230 2,800 -420 Descending Houston Center